createdAt,value
2022-11-15T00:01:52.986Z,11.27
2022-11-15T00:04:38.694Z,7.03
2022-11-15T00:07:53.437Z,8.98
2022-11-15T00:10:30.504Z,8.98
2022-11-15T00:13:16.115Z,7.90
2022-11-15T00:16:02.396Z,10.70
2022-11-15T00:18:50.848Z,7.43
2022-11-15T00:21:36.701Z,8.88
2022-11-15T00:24:22.529Z,8.65
2022-11-15T00:27:08.475Z,8.48
2022-11-15T00:29:54.550Z,9.43
2022-11-15T00:32:40.598Z,8.15
2022-11-15T00:35:28.057Z,8.93
2022-11-15T00:38:13.718Z,8.60
2022-11-15T00:40:59.466Z,11.27
2022-11-15T00:43:45.109Z,8.73
2022-11-15T00:46:30.845Z,7.50
2022-11-15T00:49:16.646Z,9.18
2022-11-15T00:52:02.319Z,9.07
2022-11-15T00:54:48.148Z,8.13
2022-11-15T00:57:34.193Z,6.97
2022-11-15T01:00:20.060Z,6.60
2022-11-15T01:03:05.959Z,5.90
2022-11-15T01:05:51.677Z,6.80
2022-11-15T01:08:37.538Z,8.85
2022-11-15T01:11:23.067Z,6.13
2022-11-15T01:14:09.115Z,6.85
2022-11-15T01:16:55.186Z,5.57
2022-11-15T01:19:40.969Z,6.53
2022-11-15T01:22:27.003Z,7.38
2022-11-15T01:25:12.767Z,7.18
2022-11-15T01:27:58.424Z,5.95
2022-11-15T01:30:45.180Z,9.07
2022-11-15T01:33:31.438Z,5.93
2022-11-15T01:36:20.412Z,8.30
2022-11-15T01:39:06.487Z,5.80
2022-11-15T01:41:52.146Z,5.72
2022-11-15T01:44:45.411Z,6.65
2022-11-15T01:47:34.488Z,10.18
2022-11-15T01:50:30.894Z,8.05
2022-11-15T01:53:17.064Z,7.32
2022-11-15T01:56:07.582Z,6.07
2022-11-15T01:58:53.525Z,6.45
2022-11-15T02:01:39.155Z,6.10
2022-11-15T02:04:29.651Z,6.10
2022-11-15T02:07:19.738Z,5.47
2022-11-15T02:10:12.305Z,5.18
2022-11-15T02:12:57.986Z,6.50
2022-11-15T02:16:02.828Z,7.28
2022-11-15T02:19:12.601Z,5.65
2022-11-15T02:22:25.719Z,5.10
2022-11-15T02:25:15.923Z,10.25
2022-11-15T02:28:26.814Z,6.53
2022-11-15T02:31:33.587Z,6.70
2022-11-15T02:34:23.711Z,4.45
2022-11-15T02:37:23.616Z,5.90
2022-11-15T02:40:09.506Z,5.18
2022-11-15T02:43:19.924Z,7.03
2022-11-15T02:46:51.423Z,5.03
2022-11-15T02:49:37.750Z,7.22
2022-11-15T02:52:24.342Z,6.70
2022-11-15T02:55:40.074Z,7.60
2022-11-15T03:01:32.540Z,5.83
2022-11-15T03:04:34.345Z,4.47
2022-11-15T03:07:30.886Z,7.85
2022-11-15T03:10:21.933Z,6.07
2022-11-15T03:13:21.510Z,5.47
2022-11-15T03:16:17.268Z,4.60
2022-11-15T03:19:10.021Z,6.15
2022-11-15T03:21:57.062Z,4.53
2022-11-15T03:24:43.342Z,5.78
2022-11-15T03:27:32.917Z,6.47
2022-11-15T03:30:18.885Z,5.95
2022-11-15T03:33:04.857Z,9.10
2022-11-15T03:35:50.611Z,6.18
2022-11-15T03:38:36.598Z,5.50
2022-11-15T03:41:41.444Z,4.88
2022-11-15T03:47:30.387Z,4.40
2022-11-15T03:50:20.374Z,4.55
2022-11-15T03:53:06.330Z,5.20
2022-11-15T03:55:52.207Z,4.35
2022-11-15T03:58:38.102Z,5.18
2022-11-15T04:01:23.891Z,6.25
2022-11-15T04:04:09.596Z,4.70
2022-11-15T04:06:55.565Z,5.75
2022-11-15T04:09:59.655Z,4.85
2022-11-15T04:12:48.170Z,5.32
2022-11-15T04:15:34.366Z,5.35
2022-11-15T04:18:20.147Z,4.47
2022-11-15T04:21:24.890Z,5.63
2022-11-15T04:24:13.485Z,6.53
2022-11-15T04:26:59.324Z,7.18
2022-11-15T04:29:44.953Z,9.95
2022-11-15T04:32:31.101Z,5.47
2022-11-15T04:35:16.843Z,4.85
2022-11-15T04:38:03.002Z,5.15
2022-11-15T04:40:48.874Z,4.30
2022-11-15T04:43:35.125Z,7.57
2022-11-15T04:46:21.384Z,5.70
2022-11-15T04:49:07.269Z,4.78
2022-11-15T04:51:52.940Z,4.93
2022-11-15T04:54:38.871Z,5.53
2022-11-15T04:57:24.519Z,5.53
2022-11-15T05:00:12.744Z,4.95
2022-11-15T05:03:17.377Z,4.65
2022-11-15T05:06:03.089Z,5.17
2022-11-15T05:08:48.677Z,5.85
2022-11-15T05:11:34.532Z,4.43
2022-11-15T05:14:20.416Z,5.43
2022-11-15T05:17:06.107Z,3.83
2022-11-15T05:19:52.904Z,5.68
2022-11-15T05:22:38.503Z,6.70
2022-11-15T05:25:24.408Z,6.80
2022-11-15T05:28:21.325Z,6.53
2022-11-15T05:31:14.971Z,5.78
2022-11-15T05:34:01.089Z,7.05
2022-11-15T05:36:46.970Z,4.38
2022-11-15T05:39:32.743Z,7.57
2022-11-15T05:42:18.743Z,4.25
2022-11-15T05:45:05.583Z,4.68
2022-11-15T05:47:52.500Z,3.60
2022-11-15T05:50:39.127Z,4.57
2022-11-15T05:53:25.670Z,5.88
2022-11-15T05:56:11.659Z,5.57
2022-11-15T05:58:59.753Z,6.30
2022-11-15T06:01:46.086Z,8.35
2022-11-15T06:04:31.999Z,4.68
2022-11-15T06:07:17.836Z,6.55
2022-11-15T06:10:30.253Z,5.18
2022-11-15T06:13:16.352Z,5.57
2022-11-15T06:16:02.175Z,4.65
2022-11-15T06:18:51.210Z,7.18
2022-11-15T06:21:37.261Z,4.57
2022-11-15T06:24:23.055Z,4.93
2022-11-15T06:27:11.263Z,6.45
2022-11-15T06:29:56.933Z,5.88
2022-11-15T06:32:42.624Z,4.43
2022-11-15T06:35:28.869Z,6.85
2022-11-15T06:38:14.908Z,6.82
2022-11-15T06:41:08.155Z,5.10
2022-11-15T06:43:53.925Z,7.13
2022-11-15T06:46:39.880Z,6.20
2022-11-15T06:49:25.440Z,4.90
2022-11-15T06:52:11.459Z,5.85
2022-11-15T06:54:57.358Z,5.90
2022-11-15T06:57:50.520Z,5.43
2022-11-15T07:00:36.188Z,7.80
2022-11-15T07:03:22.073Z,6.80
2022-11-15T07:06:08.271Z,5.20
2022-11-15T07:08:54.296Z,4.97
2022-11-15T07:11:40.146Z,7.78
2022-11-15T07:14:26.061Z,6.45
2022-11-15T07:17:12.737Z,7.25
2022-11-15T07:19:58.379Z,6.47
2022-11-15T07:22:46.174Z,10.38
2022-11-15T07:25:32.126Z,11.07
2022-11-15T07:28:18.130Z,9.40
2022-11-15T07:31:08.193Z,7.10
2022-11-15T07:33:53.884Z,8.57
2022-11-15T07:36:40.033Z,6.50
2022-11-15T07:39:25.764Z,11.05
2022-11-15T07:42:30.084Z,9.77
2022-11-15T07:45:19.355Z,7.80
2022-11-15T07:48:05.501Z,9.73
2022-11-15T07:50:51.293Z,6.65
2022-11-15T07:53:37.293Z,7.05
2022-11-15T07:56:23.204Z,5.95
2022-11-15T07:59:08.886Z,10.00
2022-11-15T08:01:55.739Z,6.07
2022-11-15T08:04:41.417Z,9.07
2022-11-15T08:07:31.229Z,8.15
2022-11-15T08:10:20.023Z,9.18
2022-11-15T08:13:10.411Z,7.78
2022-11-15T08:16:00.469Z,6.75
2022-11-15T08:18:46.494Z,17.85
2022-11-15T08:21:32.215Z,7.10
2022-11-15T08:24:18.443Z,10.40
2022-11-15T08:27:04.242Z,8.90
2022-11-15T08:29:59.324Z,7.22
2022-11-15T08:32:46.404Z,10.63
2022-11-15T08:35:32.722Z,10.80
2022-11-15T08:38:18.723Z,8.10
2022-11-15T08:41:05.294Z,9.60
2022-11-15T08:43:51.352Z,11.65
2022-11-15T08:46:37.515Z,10.02
2022-11-15T08:49:23.749Z,10.88
2022-11-15T08:52:10.172Z,12.50
2022-11-15T08:54:55.896Z,9.52
2022-11-15T08:57:41.660Z,11.43
2022-11-15T09:00:27.549Z,6.78
2022-11-15T09:03:13.112Z,12.13
2022-11-15T09:05:59.969Z,10.93
2022-11-15T09:08:48.148Z,6.47
2022-11-15T09:11:39.462Z,8.75
2022-11-15T09:14:25.066Z,8.02
2022-11-15T09:17:11.838Z,5.75
2022-11-15T09:19:57.643Z,6.65
2022-11-15T09:22:43.643Z,5.53
2022-11-15T09:25:29.652Z,7.20
2022-11-15T09:28:15.513Z,7.18
2022-11-15T09:31:02.350Z,6.32
2022-11-15T09:33:48.252Z,5.63
2022-11-15T09:36:33.966Z,5.90
2022-11-15T09:39:20.050Z,7.93
2022-11-15T09:42:39.836Z,6.55
2022-11-15T09:45:30.709Z,8.93
2022-11-15T09:48:41.467Z,7.07
2022-11-15T09:51:33.319Z,10.00
2022-11-15T09:54:45.583Z,12.65
2022-11-15T09:57:19.556Z,8.32
2022-11-15T09:59:52.433Z,8.18
2022-11-15T10:02:28.491Z,8.82
2022-11-15T10:04:55.699Z,8.50
2022-11-15T10:07:31.266Z,12.32
2022-11-15T10:10:05.733Z,7.38
2022-11-15T10:12:37.903Z,6.05
2022-11-15T10:15:10.112Z,6.65
2022-11-15T10:17:44.582Z,7.63
2022-11-15T10:20:20.842Z,6.47
2022-11-15T10:22:53.453Z,8.52
2022-11-15T10:25:25.518Z,5.68
2022-11-15T10:27:56.488Z,5.35
2022-11-15T10:30:24.216Z,7.13
2022-11-15T10:32:53.832Z,8.15
2022-11-15T10:35:26.720Z,4.00
2022-11-15T10:38:09.260Z,7.97
2022-11-15T10:40:37.388Z,3.17
2022-11-15T10:43:15.453Z,3.88
2022-11-15T10:45:43.003Z,6.82
2022-11-15T10:48:14.776Z,6.88
2022-11-15T10:50:46.545Z,5.82
2022-11-15T10:53:21.236Z,5.18
2022-11-15T10:55:50.434Z,5.72
2022-11-15T10:58:50.045Z,2.50
2022-11-15T11:01:19.445Z,3.00
2022-11-15T11:04:00.243Z,9.93
2022-11-15T11:06:28.007Z,4.07
2022-11-15T11:09:00.196Z,5.03
2022-11-15T11:11:48.429Z,4.60
2022-11-15T11:14:32.945Z,5.07
2022-11-15T11:17:23.096Z,2.97
2022-11-15T11:20:02.676Z,2.97
2022-11-15T11:22:41.816Z,2.65
2022-11-15T11:25:19.253Z,5.80
2022-11-15T11:28:11.121Z,4.22
2022-11-15T11:31:26.519Z,4.45
2022-11-15T11:34:24.525Z,2.20
2022-11-15T11:37:13.877Z,5.45
2022-11-15T11:39:55.291Z,3.22
2022-11-15T11:43:04.224Z,3.88
2022-11-15T11:45:37.329Z,6.05
2022-11-15T11:48:41.543Z,2.13
2022-11-15T11:51:14.132Z,4.78
2022-11-15T11:54:13.655Z,4.55
2022-11-15T11:56:42.312Z,6.40
2022-11-15T11:59:12.524Z,3.47
2022-11-15T12:01:44.340Z,2.50
2022-11-15T12:04:29.742Z,4.75
2022-11-15T12:07:16.992Z,5.25
2022-11-15T12:09:47.174Z,5.38
2022-11-15T12:12:39.334Z,5.68
2022-11-15T12:15:18.031Z,2.22
2022-11-15T12:17:45.383Z,2.88
2022-11-15T12:20:22.848Z,10.32
2022-11-15T12:22:59.932Z,4.05
2022-11-15T12:25:48.787Z,2.88
2022-11-15T12:28:36.481Z,3.15
2022-11-15T12:31:36.831Z,3.88
2022-11-15T12:34:13.963Z,2.58
2022-11-15T12:36:43.271Z,6.10
2022-11-15T12:39:11.721Z,2.67
2022-11-15T12:41:40.934Z,5.72
2022-11-15T12:44:37.109Z,4.57
2022-11-15T12:47:11.681Z,4.40
2022-11-15T12:49:45.329Z,2.75
2022-11-15T12:52:12.725Z,3.13
2022-11-15T12:54:43.055Z,2.47
2022-11-15T12:57:16.297Z,5.43
2022-11-15T12:59:59.503Z,2.50
2022-11-15T13:02:36.534Z,3.38
2022-11-15T13:05:36.829Z,3.80
2022-11-15T13:08:04.173Z,2.33
2022-11-15T13:10:33.446Z,3.13
2022-11-15T13:13:43.788Z,3.85
2022-11-15T13:16:10.951Z,2.33
2022-11-15T13:18:39.800Z,2.72
2022-11-15T13:21:45.074Z,3.63
2022-11-15T13:26:44.236Z,16.33
2022-11-15T13:29:19.069Z,6.43
2022-11-15T13:31:46.314Z,5.68
2022-11-15T13:34:53.329Z,6.00
2022-11-15T13:37:25.867Z,5.32
2022-11-15T13:39:53.153Z,10.07
2022-11-15T13:42:21.476Z,3.28
2022-11-15T13:44:59.644Z,2.88
2022-11-15T13:47:28.338Z,3.63
2022-11-15T13:49:58.232Z,6.78
2022-11-15T13:52:52.377Z,11.00
2022-11-15T13:55:21.621Z,4.05
2022-11-15T13:57:57.138Z,6.03
2022-11-15T14:00:44.318Z,5.05
2022-11-15T14:03:26.913Z,2.92
2022-11-15T14:06:13.613Z,5.35
2022-11-15T14:08:41.526Z,3.10
2022-11-15T14:11:19.318Z,6.18
2022-11-15T14:14:10.437Z,3.83
2022-11-15T14:16:39.568Z,3.30
2022-11-15T14:19:12.681Z,16.48
2022-11-15T14:22:18.577Z,5.25
2022-11-15T14:24:46.890Z,6.25
2022-11-15T14:27:28.055Z,4.50
2022-11-15T14:29:55.331Z,10.10
2022-11-15T14:32:24.435Z,7.63
2022-11-15T14:34:59.601Z,9.45
2022-11-15T14:37:33.912Z,8.90
2022-11-15T14:42:29.061Z,12.73
2022-11-15T14:44:56.544Z,6.13
2022-11-15T14:47:24.184Z,9.25
2022-11-15T14:49:51.892Z,9.98
2022-11-15T14:52:34.600Z,4.97
2022-11-15T14:55:03.549Z,10.18
2022-11-15T14:57:35.216Z,6.28
2022-11-15T15:00:04.113Z,8.60
2022-11-15T15:02:42.367Z,10.13
2022-11-15T15:05:16.142Z,7.93
2022-11-15T15:07:43.974Z,9.40
2022-11-15T15:10:38.269Z,6.43
2022-11-15T15:12:59.435Z,7.80
2022-11-15T15:15:34.076Z,6.05
2022-11-15T15:18:01.774Z,13.05
2022-11-15T15:20:29.756Z,7.70
2022-11-15T15:22:56.973Z,13.65
2022-11-15T15:25:31.317Z,30.33
2022-11-15T15:27:58.611Z,10.77
2022-11-15T15:30:27.034Z,6.90
2022-11-15T15:32:54.958Z,7.43
2022-11-15T15:35:22.467Z,9.35
2022-11-15T15:37:50.699Z,27.42
2022-11-15T15:40:22.405Z,12.40
2022-11-15T15:42:49.963Z,14.82
2022-11-15T15:45:18.077Z,29.05
2022-11-15T15:47:45.726Z,23.67
2022-11-15T15:50:22.818Z,17.23
2022-11-15T15:52:51.272Z,14.60
2022-11-15T15:55:18.706Z,14.52
2022-11-15T15:57:46.932Z,12.27
2022-11-15T16:00:14.588Z,15.15
2022-11-15T16:02:41.906Z,9.15
2022-11-15T16:05:09.711Z,14.27
2022-11-15T16:07:37.157Z,19.00
2022-11-15T16:10:18.909Z,14.85
2022-11-15T16:12:46.821Z,18.67
2022-11-15T16:15:14.249Z,11.90
2022-11-15T16:17:52.737Z,12.75
2022-11-15T16:20:45.714Z,11.13
2022-11-15T16:23:14.915Z,9.38
2022-11-15T16:25:49.554Z,16.08
2022-11-15T16:28:20.996Z,16.25
2022-11-15T16:30:53.734Z,13.13
2022-11-15T16:33:24.029Z,16.83
2022-11-15T16:35:51.519Z,19.55
2022-11-15T16:38:19.209Z,15.77
2022-11-15T16:40:46.907Z,9.02
2022-11-15T16:43:14.350Z,29.88
2022-11-15T16:45:41.657Z,26.10
2022-11-15T16:48:19.715Z,33.15
2022-11-15T16:50:46.888Z,25.33
2022-11-15T16:53:14.117Z,19.45
2022-11-15T16:55:41.465Z,11.07
2022-11-15T16:58:09.500Z,13.32
2022-11-15T17:00:37.004Z,14.57
2022-11-15T17:03:04.769Z,14.95
2022-11-15T17:05:32.212Z,18.42
2022-11-15T17:07:59.635Z,12.15
2022-11-15T17:10:27.074Z,17.35
2022-11-15T17:12:55.874Z,17.40
2022-11-15T17:15:24.575Z,13.95
2022-11-15T17:17:53.500Z,16.02
2022-11-15T17:20:22.512Z,17.20
2022-11-15T17:22:49.990Z,17.60
2022-11-15T17:25:18.841Z,17.85
2022-11-15T17:27:46.643Z,11.82
2022-11-15T17:30:15.568Z,16.77
2022-11-15T17:32:43.436Z,15.77
2022-11-15T17:35:15.696Z,13.43
2022-11-15T17:37:44.468Z,19.02
2022-11-15T17:40:12.047Z,13.45
2022-11-15T17:42:41.633Z,14.15
2022-11-15T17:45:10.743Z,16.20
2022-11-15T17:47:38.423Z,13.43
2022-11-15T17:50:06.148Z,19.52
2022-11-15T17:52:33.500Z,13.75
2022-11-15T17:55:00.815Z,14.75
2022-11-15T17:57:28.069Z,14.18
2022-11-15T17:59:55.319Z,15.40
2022-11-15T18:02:22.637Z,17.30
2022-11-15T18:04:49.893Z,20.80
2022-11-15T18:07:17.299Z,19.40
2022-11-15T18:09:45.398Z,22.65
2022-11-15T18:12:12.677Z,18.48
2022-11-15T18:14:40.905Z,16.40
2022-11-15T18:17:08.110Z,16.58
2022-11-15T18:19:36.443Z,13.75
2022-11-15T18:22:05.464Z,18.83
2022-11-15T18:24:40.733Z,19.20
2022-11-15T18:27:21.165Z,18.50
2022-11-15T18:29:49.351Z,18.85
2022-11-15T18:32:17.857Z,14.15
2022-11-15T18:34:45.636Z,13.43
2022-11-15T18:37:13.218Z,20.88
2022-11-15T18:39:40.687Z,20.25
2022-11-15T18:42:07.926Z,17.35
2022-11-15T18:44:35.190Z,16.42
2022-11-15T18:47:02.508Z,22.98
2022-11-15T18:49:29.955Z,20.73
2022-11-15T18:51:57.360Z,15.13
2022-11-15T18:54:30.602Z,18.60
2022-11-15T18:59:27.615Z,12.88
2022-11-15T19:01:55.926Z,18.10
2022-11-15T19:04:23.194Z,15.73
2022-11-15T19:06:50.626Z,20.52
2022-11-15T19:09:19.408Z,22.00
2022-11-15T19:11:47.415Z,15.45
2022-11-15T19:14:16.196Z,16.63
2022-11-15T19:16:53.129Z,16.70
2022-11-15T19:19:24.743Z,20.35
2022-11-15T19:21:52.384Z,19.17
2022-11-15T19:24:19.737Z,15.70
2022-11-15T19:26:47.056Z,16.05
2022-11-15T19:29:14.408Z,19.38
2022-11-15T19:31:41.842Z,19.52
2022-11-15T19:34:09.215Z,16.77
2022-11-15T19:36:43.547Z,14.30
2022-11-15T19:39:13.013Z,16.25
2022-11-15T19:41:42.312Z,16.42
2022-11-15T19:44:10.705Z,17.38
2022-11-15T19:46:38.225Z,14.00
2022-11-15T19:49:07.831Z,14.85
2022-11-15T19:51:35.117Z,12.52
2022-11-15T19:54:06.334Z,13.55
2022-11-15T19:56:34.455Z,15.55
2022-11-15T19:59:01.858Z,15.20
2022-11-15T20:01:30.647Z,20.10
2022-11-15T20:03:59.483Z,21.10
2022-11-15T20:06:34.164Z,14.57
2022-11-15T20:09:01.378Z,15.90
2022-11-15T20:11:28.613Z,11.40
2022-11-15T20:14:00.336Z,16.27
2022-11-15T20:16:27.782Z,13.65
2022-11-15T20:18:54.988Z,13.50
2022-11-15T20:21:22.271Z,13.18
2022-11-15T20:23:50.857Z,16.35
2022-11-15T20:26:19.439Z,13.90
2022-11-15T20:28:48.019Z,10.73
2022-11-15T20:31:15.935Z,13.20
2022-11-15T20:33:43.321Z,14.60
2022-11-15T20:36:12.032Z,15.60
2022-11-15T20:38:39.335Z,14.93
2022-11-15T20:41:06.732Z,14.52
2022-11-15T20:43:33.971Z,13.70
2022-11-15T20:46:01.307Z,12.23
2022-11-15T20:48:28.540Z,14.10
2022-11-15T20:51:13.005Z,14.13
2022-11-15T20:53:41.806Z,11.20
2022-11-15T20:56:15.914Z,18.25
2022-11-15T20:58:44.588Z,11.60
2022-11-15T21:01:14.965Z,19.65
2022-11-15T21:03:42.394Z,13.40
2022-11-15T21:06:10.947Z,12.25
2022-11-15T21:09:03.690Z,14.80
2022-11-15T21:11:54.407Z,15.15
2022-11-15T21:14:23.042Z,13.93
2022-11-15T21:16:50.291Z,13.38
2022-11-15T21:19:17.625Z,15.70
2022-11-15T21:21:45.179Z,15.65
2022-11-15T21:24:13.625Z,17.65
2022-11-15T21:26:41.469Z,13.45
2022-11-15T21:29:17.529Z,14.98
2022-11-15T21:31:48.803Z,16.30
2022-11-15T21:34:21.770Z,12.43
2022-11-15T21:36:49.285Z,25.17
2022-11-15T21:39:17.573Z,12.15
2022-11-15T21:41:45.180Z,12.80
2022-11-15T21:44:13.527Z,12.35
2022-11-15T21:46:40.671Z,13.93
2022-11-15T21:49:08.576Z,14.45
2022-11-15T21:51:36.107Z,12.85
2022-11-15T21:54:29.123Z,13.48
2022-11-15T21:56:56.326Z,22.20
2022-11-15T21:59:24.606Z,14.20
2022-11-15T22:02:11.281Z,16.08
2022-11-15T22:04:38.534Z,19.23
2022-11-15T22:07:08.260Z,15.20
2022-11-15T22:09:35.968Z,11.90
2022-11-15T22:12:13.427Z,16.80
2022-11-15T22:14:40.646Z,18.13
2022-11-15T22:17:11.082Z,22.05
2022-11-15T22:19:52.181Z,15.73
2022-11-15T22:22:25.251Z,13.68
2022-11-15T22:24:52.526Z,13.15
2022-11-15T22:27:19.790Z,16.25
2022-11-15T22:29:47.044Z,14.40
2022-11-15T22:32:14.360Z,15.57
2022-11-15T22:34:43.012Z,12.68
2022-11-15T22:37:25.625Z,11.65
2022-11-15T22:39:52.959Z,16.90
2022-11-15T22:42:24.329Z,16.33
2022-11-15T22:44:51.662Z,16.65
2022-11-15T22:47:21.039Z,12.05
2022-11-15T22:49:48.457Z,13.75
2022-11-15T22:52:15.748Z,12.18
2022-11-15T22:54:43.110Z,14.32
2022-11-15T22:57:11.576Z,12.40
2022-11-15T22:59:39.006Z,11.23
2022-11-15T23:02:07.348Z,11.30
2022-11-15T23:04:34.622Z,12.05
2022-11-15T23:07:01.935Z,14.05
2022-11-15T23:10:16.034Z,13.10
2022-11-15T23:19:16.505Z,18.73
2022-11-15T23:22:03.786Z,13.32
2022-11-15T23:24:32.756Z,12.15
2022-11-15T23:27:02.451Z,13.63
2022-11-15T23:29:32.150Z,17.15
2022-11-15T23:35:11.432Z,14.38
2022-11-15T23:37:48.919Z,14.40
2022-11-15T23:40:16.274Z,12.00
2022-11-15T23:42:44.517Z,12.77
2022-11-15T23:45:11.773Z,16.58
2022-11-15T23:47:39.029Z,14.05
2022-11-15T23:50:06.801Z,14.70
2022-11-15T23:52:38.059Z,13.00
2022-11-15T23:55:05.857Z,13.82
2022-11-15T23:57:33.129Z,12.90
